Bahia Tres — EADC — position and weather

sailwx.info

Track history (hours):
 
Tides and Currents Weather Stations Pressure Air Temp Water Temp Dewpoint Dewpoint Depression Visibility Wind Speed Wind Dir Waves Ship Positions

Bahia Tres

Last reported at 2017-Sep-26 09:00 UTC. Time now 2017-Sep-26 09:26 UTC.
Position N 37°56' W 008°51'.

Length 100 m; draft 5.3 m.

Type: Tanker. MMSI: 224994000.

Date/timePositionNaut miles runAvg speedWind from/ knotsBaromVisibWave heightAir tempDewpointWater temp
2017-Sep-26 09:00N 37°56' W 008°51'0 0.0
2017-Sep-26 08:30N 37°56' W 008°51'0 1.0
2017-Sep-26 08:00N 37°55' W 008°51'3 5.2
2017-Sep-26 07:30N 37°54' W 008°53'4 8.3
2017-Sep-26 07:00N 37°54' W 008°59'1 1.9
2017-Sep-26 06:30N 37°54' W 008°57'3 6.1
2017-Sep-26 06:00N 37°55' W 008°54'2 3.7
2017-Sep-26 05:30N 37°57' W 008°53'0 0.0
2017-Sep-26 05:00N 37°57' W 008°53'0 0.0
2017-Sep-26 04:30N 37°57' W 008°53'0 0.0
2017-Sep-26 04:00N 37°57' W 008°53'0 0.0
2017-Sep-26 03:30N 37°57' W 008°53'0 0.0
2017-Sep-26 03:00N 37°57' W 008°53'0 0.0
2017-Sep-26 02:27N 37°57' W 008°53'0 0.0
2017-Sep-26 02:00N 37°57' W 008°53'0 0.0
2017-Sep-26 01:30N 37°57' W 008°53'0 0.0
2017-Sep-26 01:00N 37°57' W 008°53'0 0.0
2017-Sep-26 00:30N 37°57' W 008°53'0 0.0
2017-Sep-26 00:00N 37°57' W 008°53'0 0.0
2017-Sep-25 23:30N 37°57' W 008°53'0 0.0
2017-Sep-25 23:00N 37°57' W 008°53'0 0.0
2017-Sep-25 22:30N 37°57' W 008°53'0 0.0
2017-Sep-25 21:57N 37°57' W 008°53'0 0.0
2017-Sep-25 21:30N 37°57' W 008°53'0 0.0
2017-Sep-25 20:57N 37°57' W 008°53'0 0.0
2017-Sep-25 20:30N 37°57' W 008°53'0 0.0
2017-Sep-25 20:00N 37°57' W 008°53'0 0.0
2017-Sep-25 19:30N 37°57' W 008°53'0 0.0
2017-Sep-25 19:00N 37°57' W 008°53'0 0.0
2017-Sep-25 18:30N 37°57' W 008°53'1 1.1
2017-Sep-25 18:00N 37°57' W 008°53'2 4.8
2017-Sep-25 17:30N 37°55' W 008°50'1 1.4
2017-Sep-25 16:59N 37°56' W 008°51'0 0.0
2017-Sep-25 16:29N 37°56' W 008°51'0 0.0
2017-Sep-25 15:59N 37°56' W 008°51'0 0.0
2017-Sep-25 15:29N 37°56' W 008°51'0 0.0
2017-Sep-25 14:59N 37°56' W 008°51'0 0.0
2017-Sep-25 14:29N 37°56' W 008°51'0 0.0
2017-Sep-25 13:59N 37°56' W 008°51'0 0.0
2017-Sep-25 13:29N 37°56' W 008°51'0 0.0
2017-Sep-25 12:59N 37°56' W 008°51'0 0.0
2017-Sep-25 12:29N 37°56' W 008°51'0 0.0
2017-Sep-25 11:59N 37°56' W 008°51'0 0.2
2017-Sep-25 11:30N 37°56' W 008°51'1 1.2
2017-Sep-25 11:00N 37°55' W 008°51'1 1.6
2017-Sep-25 10:28N 37°55' W 008°51'0 0.0
2017-Sep-25 09:58N 37°55' W 008°51'0 0.0
2017-Sep-25 09:28N 37°55' W 008°51'0 0.0
2017-Sep-25 08:58N 37°55' W 008°51'0 0.0
2017-Sep-25 08:28N 37°55' W 008°51'0 0.0
2017-Sep-25 00:16N 37°55' W 008°51'0 0.0
2017-Sep-24 23:58N 37°55' W 008°51'0 0.0
2017-Sep-24 23:28N 37°55' W 008°51'0 0.0
2017-Sep-24 22:58N 37°55' W 008°51'0 1.0
2017-Sep-24 22:30N 37°55' W 008°51'1 2.2
2017-Sep-24 22:01N 37°56' W 008°51'0 0.0
2017-Sep-24 21:31N 37°56' W 008°51'0 0.0
2017-Sep-24 21:01N 37°56' W 008°51'0 0.0
2017-Sep-24 20:31N 37°56' W 008°51'0 0.0
2017-Sep-24 20:01N 37°56' W 008°51'0 0.0
2017-Sep-24 19:31N 37°56' W 008°51'0 0.0
2017-Sep-24 19:00N 37°56' W 008°51'0 0.0
2017-Sep-24 18:31N 37°56' W 008°51'0 0.0
2017-Sep-24 18:01N 37°56' W 008°51'0 0.0
2017-Sep-24 17:31N 37°56' W 008°51'0 0.0
2017-Sep-24 16:59N 37°56' W 008°51'0 0.2
2017-Sep-24 16:29N 37°56' W 008°51'1 1.7
2017-Sep-24 16:00N 37°55' W 008°51'1 1.5
2017-Sep-24 15:28N 37°55' W 008°51'0 0.0
2017-Sep-24 14:58N 37°55' W 008°51'0 0.0
2017-Sep-24 14:28N 37°55' W 008°51'0 0.0
2017-Sep-24 13:58N 37°55' W 008°51'0 0.0
2017-Sep-24 13:28N 37°55' W 008°51'0 0.0
2017-Sep-24 12:58N 37°55' W 008°51'0 0.0
2017-Sep-24 12:28N 37°55' W 008°51'0 0.0
2017-Sep-24 11:58N 37°55' W 008°51'0 0.0
2017-Sep-24 11:28N 37°55' W 008°51'0 0.0
2017-Sep-24 10:52N 37°55' W 008°51'0 0.4
2017-Sep-24 10:30N 37°55' W 008°51'1 2.3
2017-Sep-24 10:00N 37°56' W 008°51'0 0.0
2017-Sep-24 09:30N 37°56' W 008°51'0 0.0
2017-Sep-24 09:00N 37°56' W 008°51'0 0.0
2017-Sep-24 08:30N 37°56' W 008°51'0 0.0
2017-Sep-24 08:00N 37°56' W 008°51'0 0.0
2017-Sep-24 07:30N 37°56' W 008°51'0 0.0
2017-Sep-24 07:00N 37°56' W 008°51'0 0.0
2017-Sep-24 06:30N 37°56' W 008°51'0 0.0
2017-Sep-24 06:00N 37°56' W 008°51'0 0.0
2017-Sep-24 05:30N 37°56' W 008°51'0 0.0
2017-Sep-24 05:00N 37°56' W 008°51'0 0.0
2017-Sep-24 04:30N 37°56' W 008°51'0 0.0
2017-Sep-24 04:00N 37°56' W 008°51'0 0.0
2017-Sep-24 03:30N 37°56' W 008°51'0 0.0
2017-Sep-24 02:57N 37°56' W 008°51'0 0.0
2017-Sep-24 02:30N 37°56' W 008°51'0 0.0
2017-Sep-24 02:00N 37°56' W 008°51'0 0.0
2017-Sep-24 01:30N 37°56' W 008°51'0 0.0
2017-Sep-24 01:00N 37°56' W 008°51'0 0.0
2017-Sep-24 00:30N 37°56' W 008°51'0 0.0
2017-Sep-24 00:00N 37°56' W 008°51'0 0.0
2017-Sep-23 23:30N 37°56' W 008°51'0 0.0
2017-Sep-23 23:00N 37°56' W 008°51'0 0.0
2017-Sep-23 22:30N 37°56' W 008°51'0 0.0
2017-Sep-23 22:00N 37°56' W 008°51'0 0.0
2017-Sep-23 21:30N 37°56' W 008°51'0 0.0
2017-Sep-23 21:00N 37°56' W 008°51'0 0.0
2017-Sep-23 20:30N 37°56' W 008°51'0 0.0
2017-Sep-23 20:00N 37°56' W 008°51'47 1.1
2017-Sep-22 00:55N 38°41' W 009°13'0 0.0
2017-Sep-22 00:30N 38°41' W 009°13'0 0.7
2017-Sep-22 00:00N 38°41' W 009°13'4 7.8
2017-Sep-21 23:30N 38°41' W 009°18'510.6
2017-Sep-21 23:00N 38°37' W 009°23'510.0
2017-Sep-21 22:30N 38°32' W 009°21'510.5
2017-Sep-21 22:00N 38°27' W 009°19'510.3
2017-Sep-21 21:30N 38°22' W 009°16'510.2
2017-Sep-21 21:00N 38°18' W 009°13'510.0
2017-Sep-21 20:30N 38°14' W 009°09'510.1
2017-Sep-21 20:00N 38°10' W 009°06'510.3
2017-Sep-21 19:30N 38°05' W 009°02'510.0
2017-Sep-21 19:00N 38°01' W 008°59'5 9.9
2017-Sep-21 18:30N 37°57' W 008°55'2 3.2
2017-Sep-21 17:56N 37°57' W 008°53'0 0.0
2017-Sep-21 17:29N 37°57' W 008°53'0 0.0
2017-Sep-21 16:59N 37°57' W 008°53'0 0.0
2017-Sep-21 16:29N 37°57' W 008°53'0 0.0
2017-Sep-21 15:59N 37°57' W 008°53'0 0.0
2017-Sep-21 15:29N 37°57' W 008°53'0 0.0
2017-Sep-21 14:59N 37°57' W 008°53'0 0.0
2017-Sep-21 14:29N 37°57' W 008°53'0 0.0
2017-Sep-21 13:59N 37°57' W 008°53'0 0.0
2017-Sep-21 13:29N 37°57' W 008°53'0 0.0
2017-Sep-21 12:59N 37°57' W 008°53'0 0.0
2017-Sep-21 12:29N 37°57' W 008°53'0 0.0
2017-Sep-21 11:59N 37°57' W 008°53'0 0.0
2017-Sep-21 11:29N 37°57' W 008°53'0 0.0
2017-Sep-21 10:59N 37°57' W 008°53'0 0.0
2017-Sep-21 10:29N 37°57' W 008°53'0 0.0
2017-Sep-21 09:59N 37°57' W 008°53'0 0.0
2017-Sep-21 09:29N 37°57' W 008°53'0 0.0
2017-Sep-21 08:59N 37°57' W 008°53'0 0.0
2017-Sep-21 08:29N 37°57' W 008°53'0 0.0
2017-Sep-21 07:59N 37°57' W 008°53'0 0.0
2017-Sep-21 07:29N 37°57' W 008°53'0 0.0
2017-Sep-21 06:59N 37°57' W 008°53'0 0.0
2017-Sep-21 06:29N 37°57' W 008°53'0 0.0
2017-Sep-21 05:59N 37°57' W 008°53'0 0.0
2017-Sep-21 05:29N 37°57' W 008°53'0 0.0
2017-Sep-21 04:56N 37°57' W 008°53'0 0.0
2017-Sep-21 04:29N 37°57' W 008°53'0 0.0
2017-Sep-21 03:59N 37°57' W 008°53'0 0.0
2017-Sep-21 03:29N 37°57' W 008°53'0 0.0
2017-Sep-21 02:59N 37°57' W 008°53'0 0.0
2017-Sep-21 02:29N 37°57' W 008°53'0 0.0
2017-Sep-21 01:59N 37°57' W 008°53'0 0.0
2017-Sep-21 01:29N 37°57' W 008°53'0 0.0
2017-Sep-21 00:59N 37°57' W 008°53'0 0.0
2017-Sep-21 00:29N 37°57' W 008°53'0 0.0
2017-Sep-20 23:59N 37°57' W 008°53'0 0.0
2017-Sep-20 23:29N 37°57' W 008°53'0 0.0
2017-Sep-20 22:59N 37°57' W 008°53'0 0.0
2017-Sep-20 22:29N 37°57' W 008°53'0 0.0
2017-Sep-20 21:59N 37°57' W 008°53'0 0.0
2017-Sep-20 21:29N 37°57' W 008°53'0 0.0
2017-Sep-20 20:59N 37°57' W 008°53'0 0.0
2017-Sep-20 20:29N 37°57' W 008°53'0 0.0
2017-Sep-20 19:59N 37°57' W 008°53'0 0.0
2017-Sep-20 19:29N 37°57' W 008°53'0 0.3
2017-Sep-20 19:00N 37°57' W 008°53'1 2.7
2017-Sep-20 18:30N 37°56' W 008°52'0 0.0
2017-Sep-20 18:00N 37°56' W 008°52'0 0.0
2017-Sep-20 17:30N 37°56' W 008°52'0 0.0
2017-Sep-20 17:00N 37°56' W 008°52'0 0.0
2017-Sep-20 16:30N 37°56' W 008°52'0 0.0
2017-Sep-20 16:00N 37°56' W 008°52'0 0.0
2017-Sep-20 15:30N 37°56' W 008°52'0 0.0
2017-Sep-20 15:00N 37°56' W 008°52'0 0.0
2017-Sep-20 13:57N 37°56' W 008°52'0 0.0
2017-Sep-20 13:30N 37°56' W 008°52'0 0.0
2017-Sep-20 13:00N 37°56' W 008°52'0 0.0
2017-Sep-20 12:30N 37°56' W 008°52'0 0.0
2017-Sep-20 11:57N 37°56' W 008°52'0 0.0
2017-Sep-20 11:30N 37°56' W 008°52'0 0.0
2017-Sep-20 11:00N 37°56' W 008°52'0 0.0
2017-Sep-20 10:30N 37°56' W 008°52'0 0.0
2017-Sep-20 10:00N 37°56' W 008°52'0 0.0
2017-Sep-20 09:30N 37°56' W 008°52'0 0.0
2017-Sep-20 09:00N 37°56' W 008°52'0 0.0
2017-Sep-20 08:30N 37°56' W 008°52'0 0.0
2017-Sep-20 08:00N 37°56' W 008°52'0 0.0
2017-Sep-20 07:30N 37°56' W 008°52'0 0.0
2017-Sep-20 07:00N 37°56' W 008°52'0 0.0
2017-Sep-20 06:30N 37°56' W 008°52'0 0.0
2017-Sep-20 05:57N 37°56' W 008°52'0 0.0
2017-Sep-20 05:30N 37°56' W 008°52'0 0.0
2017-Sep-20 05:00N 37°56' W 008°52'0 0.0
2017-Sep-20 04:30N 37°56' W 008°52'0 0.0
2017-Sep-20 04:00N 37°56' W 008°52'0 0.0
2017-Sep-20 03:30N 37°56' W 008°52'0 0.0
2017-Sep-20 03:00N 37°56' W 008°52'0 0.0
2017-Sep-20 02:30N 37°56' W 008°52'0 0.0
2017-Sep-20 01:57N 37°56' W 008°52'0 0.0
2017-Sep-20 01:30N 37°56' W 008°52'0 0.1
2017-Sep-20 01:00N 37°56' W 008°52'1 1.3
2017-Sep-20 00:30N 37°56' W 008°52'1 2.8
2017-Sep-20 00:00N 37°56' W 008°51'0 0.3
2017-Sep-19 23:28N 37°56' W 008°51'0 0.0
2017-Sep-19 22:58N 37°56' W 008°51'0 0.0
2017-Sep-19 22:28N 37°56' W 008°51'0 0.0
2017-Sep-19 21:58N 37°56' W 008°51'0 0.0
2017-Sep-19 21:28N 37°56' W 008°51'0 0.0
2017-Sep-19 20:58N 37°56' W 008°51'0 0.0
2017-Sep-19 20:28N 37°56' W 008°51'0 0.0
2017-Sep-19 19:58N 37°56' W 008°51'0 0.0
2017-Sep-19 19:28N 37°56' W 008°51'0 0.0
2017-Sep-19 18:58N 37°56' W 008°51'0 0.0
2017-Sep-19 18:28N 37°56' W 008°51'0 0.0
2017-Sep-19 17:58N 37°56' W 008°51'0 0.0
2017-Sep-19 17:28N 37°56' W 008°51'0 0.1
2017-Sep-19 17:00N 37°56' W 008°51'1 2.4
2017-Sep-19 16:30N 37°55' W 008°51'3 6.7
2017-Sep-19 16:00N 37°54' W 008°55'1 1.4
2017-Sep-19 15:30N 37°54' W 008°56'0 0.0
2017-Sep-19 15:00N 37°54' W 008°56'2 4.4
2017-Sep-19 14:30N 37°54' W 008°53'3 4.8
2017-Sep-19 13:59N 37°56' W 008°51'0 0.5
2017-Sep-19 13:29N 37°56' W 008°51'0 0.0
2017-Sep-19 12:59N 37°56' W 008°51'0 0.0
2017-Sep-19 12:29N 37°56' W 008°51'0 0.0
2017-Sep-19 11:59N 37°56' W 008°51'0 0.0
2017-Sep-19 11:29N 37°56' W 008°51'0 0.0
2017-Sep-19 10:59N 37°56' W 008°51'0 0.0
2017-Sep-19 10:29N 37°56' W 008°51'0 0.0
2017-Sep-19 09:59N 37°56' W 008°51'0 0.0
2017-Sep-19 09:29N 37°56' W 008°51'1 1.4
2017-Sep-19 09:01N 37°55' W 008°51'1 1.4
2017-Sep-19 08:29N 37°55' W 008°51'0 0.0
2017-Sep-19 07:59N 37°55' W 008°51'0 0.0
2017-Sep-19 07:29N 37°55' W 008°51'0 0.0
2017-Sep-19 06:59N 37°55' W 008°51'0 0.0
2017-Sep-19 06:29N 37°55' W 008°51'0 0.0
2017-Sep-19 05:59N 37°55' W 008°51'0 0.0
2017-Sep-19 05:29N 37°55' W 008°51'0 0.0
2017-Sep-19 04:59N 37°55' W 008°51'0 0.1
2017-Sep-19 04:29N 37°55' W 008°51'0 0.0
2017-Sep-19 03:59N 37°55' W 008°51'0 0.0
2017-Sep-19 03:29N 37°55' W 008°51'0 0.0
2017-Sep-19 02:59N 37°55' W 008°51'0 0.0
2017-Sep-19 02:29N 37°55' W 008°51'0 0.0
2017-Sep-19 01:59N 37°55' W 008°51'0 0.0
2017-Sep-19 01:29N 37°55' W 008°51'0 0.0
2017-Sep-19 00:59N 37°55' W 008°51'0 0.0
2017-Sep-19 00:29N 37°55' W 008°51'0 0.0
2017-Sep-18 23:59N 37°55' W 008°51'0 0.0
2017-Sep-18 23:29N 37°55' W 008°51'0 0.0
2017-Sep-18 22:59N 37°55' W 008°51'0 0.0
2017-Sep-18 22:26N 37°55' W 008°51'0 0.0
2017-Sep-18 21:59N 37°55' W 008°51'0 0.0
2017-Sep-18 21:29N 37°55' W 008°51'0 0.0
2017-Sep-18 20:59N 37°55' W 008°51'0 0.0
2017-Sep-18 20:29N 37°55' W 008°51'0 0.0
2017-Sep-18 19:59N 37°55' W 008°51'0 0.0
2017-Sep-18 19:29N 37°55' W 008°51'0 0.0
2017-Sep-18 18:59N 37°55' W 008°51'0 0.0
2017-Sep-18 18:29N 37°55' W 008°51'0 0.1
2017-Sep-18 18:00N 37°55' W 008°51'1 2.1
2017-Sep-18 17:30N 37°56' W 008°52'1 2.8
2017-Sep-18 16:59N 37°57' W 008°53'0 0.0
2017-Sep-18 16:29N 37°57' W 008°53'0 0.0
2017-Sep-18 15:59N 37°57' W 008°53'0 0.0
2017-Sep-18 15:29N 37°57' W 008°53'0 0.0
2017-Sep-18 14:59N 37°57' W 008°53'0 0.0
2017-Sep-18 14:29N 37°57' W 008°53'0 0.0
2017-Sep-18 13:59N 37°57' W 008°53'0 0.0
2017-Sep-18 13:29N 37°57' W 008°53'0 0.0
2017-Sep-18 12:59N 37°57' W 008°53'0 0.0
2017-Sep-18 12:29N 37°57' W 008°53'0 0.0
2017-Sep-18 11:59N 37°57' W 008°53'0 0.0
2017-Sep-18 11:29N 37°57' W 008°53'0 0.0
2017-Sep-18 10:59N 37°57' W 008°53'0 0.0
2017-Sep-18 10:29N 37°57' W 008°53'0 0.0
2017-Sep-18 09:59N 37°57' W 008°53'0 0.0
2017-Sep-18 09:29N 37°57' W 008°53'0 0.0
2017-Sep-18 08:59N 37°57' W 008°53'0 0.0
2017-Sep-18 08:29N 37°57' W 008°53'0 0.0
2017-Sep-18 07:59N 37°57' W 008°53'0 0.4
2017-Sep-18 07:30N 37°57' W 008°53'2 4.4
2017-Sep-18 07:01N 37°55' W 008°52'0 0.2
2017-Sep-18 06:29N 37°55' W 008°51'0 0.0
2017-Sep-18 05:59N 37°55' W 008°51'0 0.0
2017-Sep-18 05:29N 37°55' W 008°51'0 0.0
2017-Sep-18 04:59N 37°55' W 008°51'0 0.1
2017-Sep-18 04:29N 37°55' W 008°51'0 0.1
2017-Sep-18 03:59N 37°55' W 008°51'0 0.1
2017-Sep-18 03:29N 37°55' W 008°51'0 0.1
2017-Sep-18 02:59N 37°55' W 008°51'0 0.0
2017-Sep-18 02:29N 37°55' W 008°51'0 0.0
2017-Sep-18 01:59N 37°55' W 008°51'0 0.0
2017-Sep-18 01:29N 37°55' W 008°51'0 0.0
2017-Sep-18 00:59N 37°55' W 008°51'0 0.0
2017-Sep-18 00:29N 37°55' W 008°51'0 0.0
2017-Sep-18 00:00N 37°55' W 008°52'1 1.9
2017-Sep-17 23:31N 37°55' W 008°50'1 1.5
2017-Sep-17 22:59N 37°56' W 008°51'0 0.0
2017-Sep-17 22:29N 37°56' W 008°51'0 0.0
2017-Sep-17 21:59N 37°56' W 008°51'0 0.0
2017-Sep-17 21:29N 37°56' W 008°51'0 0.0
2017-Sep-17 20:59N 37°56' W 008°51'0 0.0
2017-Sep-17 20:29N 37°56' W 008°51'0 0.0
2017-Sep-17 19:59N 37°56' W 008°51'0 0.0
2017-Sep-17 19:29N 37°56' W 008°51'0 0.0
2017-Sep-17 18:59N 37°56' W 008°51'0 0.0
2017-Sep-17 18:29N 37°56' W 008°51'0 0.0
2017-Sep-17 17:59N 37°56' W 008°51'0 0.0
2017-Sep-17 17:29N 37°56' W 008°51'0 0.0
2017-Sep-17 17:00N 37°56' W 008°51'0 0.0
2017-Sep-17 16:30N 37°56' W 008°51'0 0.9
2017-Sep-17 16:00N 37°55' W 008°50'1 2.0
2017-Sep-17 15:30N 37°55' W 008°52'0 0.1
2017-Sep-17 15:00N 37°55' W 008°51'0 0.0
2017-Sep-17 14:30N 37°55' W 008°51'0 0.0
2017-Sep-17 13:57N 37°55' W 008°51'0 0.0
2017-Sep-17 13:30N 37°55' W 008°51'0 0.0
2017-Sep-17 13:00N 37°55' W 008°51'0 0.0
2017-Sep-17 12:30N 37°55' W 008°51'0 0.0
2017-Sep-17 12:00N 37°55' W 008°51'0 0.0
2017-Sep-17 11:30N 37°55' W 008°51'0 0.0
2017-Sep-17 11:00N 37°55' W 008°51'0 0.0
2017-Sep-17 10:30N 37°55' W 008°51'0 0.0
2017-Sep-17 10:00N 37°55' W 008°52'0 0.0
2017-Sep-17 09:30N 37°55' W 008°52'0 0.0
2017-Sep-17 09:00N 37°55' W 008°52'0 0.0
2017-Sep-17 08:30N 37°55' W 008°51'0 0.4
2017-Sep-17 08:00N 37°55' W 008°51'1 1.9
2017-Sep-17 07:29N 37°56' W 008°51'0 0.0
2017-Sep-17 06:59N 37°56' W 008°51'0 0.0
2017-Sep-17 06:29N 37°56' W 008°51'0 0.0
2017-Sep-17 05:59N 37°56' W 008°51'0 0.0
2017-Sep-17 05:29N 37°56' W 008°51'0 0.0
2017-Sep-17 04:59N 37°56' W 008°51'0 0.0
2017-Sep-17 04:29N 37°56' W 008°51'0 0.0
2017-Sep-17 03:59N 37°56' W 008°51'0 0.0
2017-Sep-17 03:29N 37°56' W 008°51'0 0.0
2017-Sep-17 02:59N 37°56' W 008°51'0 0.0
2017-Sep-17 02:29N 37°56' W 008°51'0 0.0
2017-Sep-17 01:59N 37°56' W 008°51'0 0.0
2017-Sep-17 01:29N 37°56' W 008°51'0 0.0
2017-Sep-17 00:59N 37°56' W 008°51'0 0.0
2017-Sep-17 00:29N 37°56' W 008°51'0 0.0
2017-Sep-16 23:59N 37°56' W 008°51'0 0.0
2017-Sep-16 23:29N 37°56' W 008°51'0 0.0
2017-Sep-16 22:59N 37°56' W 008°51'0 0.0
2017-Sep-16 22:29N 37°56' W 008°51'0 0.4
2017-Sep-16 22:00N 37°56' W 008°51'0 0.0
2017-Sep-16 21:29N 37°56' W 008°51'0 0.0
2017-Sep-16 20:59N 37°56' W 008°51'0 0.0
2017-Sep-16 20:29N 37°56' W 008°51'0 0.0
2017-Sep-16 19:56N 37°56' W 008°51'0 0.0
2017-Sep-16 19:29N 37°56' W 008°51'0 0.0
2017-Sep-16 18:59N 37°56' W 008°51'0 0.0
2017-Sep-16 18:26N 37°56' W 008°51'0 0.0
2017-Sep-16 17:59N 37°56' W 008°51'0 0.0
2017-Sep-16 17:29N 37°56' W 008°51'0 0.0
2017-Sep-16 16:59N 37°56' W 008°51'0 0.0
2017-Sep-16 16:29N 37°56' W 008°51'0 0.0
2017-Sep-16 16:00N 37°56' W 008°51'0 0.0
2017-Sep-16 15:30N 37°56' W 008°51'0 1.0
2017-Sep-16 15:00N 37°55' W 008°50'2 4.9
2017-Sep-16 14:30N 37°57' W 008°53'0 0.9
2017-Sep-16 14:00N 37°57' W 008°53'0 0.0
2017-Sep-16 13:30N 37°57' W 008°53'0 0.0
2017-Sep-16 13:00N 37°57' W 008°53'0 0.0
2017-Sep-16 12:30N 37°57' W 008°53'0 0.0
2017-Sep-16 12:00N 37°57' W 008°53'0 0.0
2017-Sep-16 11:30N 37°57' W 008°53'0 0.0
2017-Sep-16 11:00N 37°57' W 008°53'0 0.0
2017-Sep-16 10:30N 37°57' W 008°53'0 0.0
2017-Sep-16 10:00N 37°57' W 008°53'0 0.0
2017-Sep-16 09:30N 37°57' W 008°53'0 0.0
2017-Sep-16 09:00N 37°57' W 008°53'  
Track history (hours):
 
Tides and Currents Weather Stations Pressure Air Temp Water Temp Dewpoint Dewpoint Depression Visibility Wind Speed Wind Dir Waves Ship Positions

Bahia Tres

Last reported at 2017-Sep-26 09:00 UTC. Time now 2017-Sep-26 09:26 UTC.
Position N 37°56' W 008°51'.

Length 100 m; draft 5.3 m.

Type: Tanker. MMSI: 224994000.

Date/timePositionNaut miles runAvg speedWind from/ knotsBaromVisibWave heightAir tempDewpointWater temp
2017-Sep-26 09:00N 37°56' W 008°51'0 0.0
2017-Sep-26 08:30N 37°56' W 008°51'0 1.0
2017-Sep-26 08:00N 37°55' W 008°51'3 5.2
2017-Sep-26 07:30N 37°54' W 008°53'4 8.3
2017-Sep-26 07:00N 37°54' W 008°59'1 1.9
2017-Sep-26 06:30N 37°54' W 008°57'3 6.1
2017-Sep-26 06:00N 37°55' W 008°54'2 3.7
2017-Sep-26 05:30N 37°57' W 008°53'0 0.0
2017-Sep-26 05:00N 37°57' W 008°53'0 0.0
2017-Sep-26 04:30N 37°57' W 008°53'0 0.0
2017-Sep-26 04:00N 37°57' W 008°53'0 0.0
2017-Sep-26 03:30N 37°57' W 008°53'0 0.0
2017-Sep-26 03:00N 37°57' W 008°53'0 0.0
2017-Sep-26 02:27N 37°57' W 008°53'0 0.0
2017-Sep-26 02:00N 37°57' W 008°53'0 0.0
2017-Sep-26 01:30N 37°57' W 008°53'0 0.0
2017-Sep-26 01:00N 37°57' W 008°53'0 0.0
2017-Sep-26 00:30N 37°57' W 008°53'0 0.0
2017-Sep-26 00:00N 37°57' W 008°53'0 0.0
2017-Sep-25 23:30N 37°57' W 008°53'0 0.0
2017-Sep-25 23:00N 37°57' W 008°53'0 0.0
2017-Sep-25 22:30N 37°57' W 008°53'0 0.0
2017-Sep-25 21:57N 37°57' W 008°53'0 0.0
2017-Sep-25 21:30N 37°57' W 008°53'0 0.0
2017-Sep-25 20:57N 37°57' W 008°53'0 0.0
2017-Sep-25 20:30N 37°57' W 008°53'0 0.0
2017-Sep-25 20:00N 37°57' W 008°53'0 0.0
2017-Sep-25 19:30N 37°57' W 008°53'0 0.0
2017-Sep-25 19:00N 37°57' W 008°53'0 0.0
2017-Sep-25 18:30N 37°57' W 008°53'1 1.1
2017-Sep-25 18:00N 37°57' W 008°53'2 4.8
2017-Sep-25 17:30N 37°55' W 008°50'1 1.4
2017-Sep-25 16:59N 37°56' W 008°51'0 0.0
2017-Sep-25 16:29N 37°56' W 008°51'0 0.0
2017-Sep-25 15:59N 37°56' W 008°51'0 0.0
2017-Sep-25 15:29N 37°56' W 008°51'0 0.0
2017-Sep-25 14:59N 37°56' W 008°51'0 0.0
2017-Sep-25 14:29N 37°56' W 008°51'0 0.0
2017-Sep-25 13:59N 37°56' W 008°51'0 0.0
2017-Sep-25 13:29N 37°56' W 008°51'0 0.0
2017-Sep-25 12:59N 37°56' W 008°51'0 0.0
2017-Sep-25 12:29N 37°56' W 008°51'0 0.0
2017-Sep-25 11:59N 37°56' W 008°51'0 0.2
2017-Sep-25 11:30N 37°56' W 008°51'1 1.2
2017-Sep-25 11:00N 37°55' W 008°51'1 1.6
2017-Sep-25 10:28N 37°55' W 008°51'0 0.0
2017-Sep-25 09:58N 37°55' W 008°51'0 0.0
2017-Sep-25 09:28N 37°55' W 008°51'0 0.0
2017-Sep-25 08:58N 37°55' W 008°51'0 0.0
2017-Sep-25 08:28N 37°55' W 008°51'0 0.0
2017-Sep-25 00:16N 37°55' W 008°51'0 0.0
2017-Sep-24 23:58N 37°55' W 008°51'0 0.0
2017-Sep-24 23:28N 37°55' W 008°51'0 0.0
2017-Sep-24 22:58N 37°55' W 008°51'0 1.0
2017-Sep-24 22:30N 37°55' W 008°51'1 2.2
2017-Sep-24 22:01N 37°56' W 008°51'0 0.0
2017-Sep-24 21:31N 37°56' W 008°51'0 0.0
2017-Sep-24 21:01N 37°56' W 008°51'0 0.0
2017-Sep-24 20:31N 37°56' W 008°51'0 0.0
2017-Sep-24 20:01N 37°56' W 008°51'0 0.0
2017-Sep-24 19:31N 37°56' W 008°51'0 0.0
2017-Sep-24 19:00N 37°56' W 008°51'0 0.0
2017-Sep-24 18:31N 37°56' W 008°51'0 0.0
2017-Sep-24 18:01N 37°56' W 008°51'0 0.0
2017-Sep-24 17:31N 37°56' W 008°51'0 0.0
2017-Sep-24 16:59N 37°56' W 008°51'0 0.2
2017-Sep-24 16:29N 37°56' W 008°51'1 1.7
2017-Sep-24 16:00N 37°55' W 008°51'1 1.5
2017-Sep-24 15:28N 37°55' W 008°51'0 0.0
2017-Sep-24 14:58N 37°55' W 008°51'0 0.0
2017-Sep-24 14:28N 37°55' W 008°51'0 0.0
2017-Sep-24 13:58N 37°55' W 008°51'0 0.0
2017-Sep-24 13:28N 37°55' W 008°51'0 0.0
2017-Sep-24 12:58N 37°55' W 008°51'0 0.0
2017-Sep-24 12:28N 37°55' W 008°51'0 0.0
2017-Sep-24 11:58N 37°55' W 008°51'0 0.0
2017-Sep-24 11:28N 37°55' W 008°51'0 0.0
2017-Sep-24 10:52N 37°55' W 008°51'0 0.4
2017-Sep-24 10:30N 37°55' W 008°51'1 2.3
2017-Sep-24 10:00N 37°56' W 008°51'0 0.0
2017-Sep-24 09:30N 37°56' W 008°51'0 0.0
2017-Sep-24 09:00N 37°56' W 008°51'0 0.0
2017-Sep-24 08:30N 37°56' W 008°51'0 0.0
2017-Sep-24 08:00N 37°56' W 008°51'0 0.0
2017-Sep-24 07:30N 37°56' W 008°51'0 0.0
2017-Sep-24 07:00N 37°56' W 008°51'0 0.0
2017-Sep-24 06:30N 37°56' W 008°51'0 0.0
2017-Sep-24 06:00N 37°56' W 008°51'0 0.0
2017-Sep-24 05:30N 37°56' W 008°51'0 0.0
2017-Sep-24 05:00N 37°56' W 008°51'0 0.0
2017-Sep-24 04:30N 37°56' W 008°51'0 0.0
2017-Sep-24 04:00N 37°56' W 008°51'0 0.0
2017-Sep-24 03:30N 37°56' W 008°51'0 0.0
2017-Sep-24 02:57N 37°56' W 008°51'0 0.0
2017-Sep-24 02:30N 37°56' W 008°51'0 0.0
2017-Sep-24 02:00N 37°56' W 008°51'0 0.0
2017-Sep-24 01:30N 37°56' W 008°51'0 0.0
2017-Sep-24 01:00N 37°56' W 008°51'0 0.0
2017-Sep-24 00:30N 37°56' W 008°51'0 0.0
2017-Sep-24 00:00N 37°56' W 008°51'0 0.0
2017-Sep-23 23:30N 37°56' W 008°51'0 0.0
2017-Sep-23 23:00N 37°56' W 008°51'0 0.0
2017-Sep-23 22:30N 37°56' W 008°51'0 0.0
2017-Sep-23 22:00N 37°56' W 008°51'0 0.0
2017-Sep-23 21:30N 37°56' W 008°51'0 0.0
2017-Sep-23 21:00N 37°56' W 008°51'0 0.0
2017-Sep-23 20:30N 37°56' W 008°51'0 0.0
2017-Sep-23 20:00N 37°56' W 008°51'47 1.1
2017-Sep-22 00:55N 38°41' W 009°13'0 0.0
2017-Sep-22 00:30N 38°41' W 009°13'0 0.7
2017-Sep-22 00:00N 38°41' W 009°13'4 7.8
2017-Sep-21 23:30N 38°41' W 009°18'510.6
2017-Sep-21 23:00N 38°37' W 009°23'510.0
2017-Sep-21 22:30N 38°32' W 009°21'510.5
2017-Sep-21 22:00N 38°27' W 009°19'510.3
2017-Sep-21 21:30N 38°22' W 009°16'510.2
2017-Sep-21 21:00N 38°18' W 009°13'510.0
2017-Sep-21 20:30N 38°14' W 009°09'510.1
2017-Sep-21 20:00N 38°10' W 009°06'510.3
2017-Sep-21 19:30N 38°05' W 009°02'510.0
2017-Sep-21 19:00N 38°01' W 008°59'5 9.9
2017-Sep-21 18:30N 37°57' W 008°55'2 3.2
2017-Sep-21 17:56N 37°57' W 008°53'0 0.0
2017-Sep-21 17:29N 37°57' W 008°53'0 0.0
2017-Sep-21 16:59N 37°57' W 008°53'0 0.0
2017-Sep-21 16:29N 37°57' W 008°53'0 0.0
2017-Sep-21 15:59N 37°57' W 008°53'0 0.0
2017-Sep-21 15:29N 37°57' W 008°53'0 0.0
2017-Sep-21 14:59N 37°57' W 008°53'0 0.0
2017-Sep-21 14:29N 37°57' W 008°53'0 0.0
2017-Sep-21 13:59N 37°57' W 008°53'0 0.0
2017-Sep-21 13:29N 37°57' W 008°53'0 0.0
2017-Sep-21 12:59N 37°57' W 008°53'0 0.0
2017-Sep-21 12:29N 37°57' W 008°53'0 0.0
2017-Sep-21 11:59N 37°57' W 008°53'0 0.0
2017-Sep-21 11:29N 37°57' W 008°53'0 0.0
2017-Sep-21 10:59N 37°57' W 008°53'0 0.0
2017-Sep-21 10:29N 37°57' W 008°53'0 0.0
2017-Sep-21 09:59N 37°57' W 008°53'0 0.0
2017-Sep-21 09:29N 37°57' W 008°53'0 0.0
2017-Sep-21 08:59N 37°57' W 008°53'0 0.0
2017-Sep-21 08:29N 37°57' W 008°53'0 0.0
2017-Sep-21 07:59N 37°57' W 008°53'0 0.0
2017-Sep-21 07:29N 37°57' W 008°53'0 0.0
2017-Sep-21 06:59N 37°57' W 008°53'0 0.0
2017-Sep-21 06:29N 37°57' W 008°53'0 0.0
2017-Sep-21 05:59N 37°57' W 008°53'0 0.0
2017-Sep-21 05:29N 37°57' W 008°53'0 0.0
2017-Sep-21 04:56N 37°57' W 008°53'0 0.0
2017-Sep-21 04:29N 37°57' W 008°53'0 0.0
2017-Sep-21 03:59N 37°57' W 008°53'0 0.0
2017-Sep-21 03:29N 37°57' W 008°53'0 0.0
2017-Sep-21 02:59N 37°57' W 008°53'0 0.0
2017-Sep-21 02:29N 37°57' W 008°53'0 0.0
2017-Sep-21 01:59N 37°57' W 008°53'0 0.0
2017-Sep-21 01:29N 37°57' W 008°53'0 0.0
2017-Sep-21 00:59N 37°57' W 008°53'0 0.0
2017-Sep-21 00:29N 37°57' W 008°53'0 0.0
2017-Sep-20 23:59N 37°57' W 008°53'0 0.0
2017-Sep-20 23:29N 37°57' W 008°53'0 0.0
2017-Sep-20 22:59N 37°57' W 008°53'0 0.0
2017-Sep-20 22:29N 37°57' W 008°53'0 0.0
2017-Sep-20 21:59N 37°57' W 008°53'0 0.0
2017-Sep-20 21:29N 37°57' W 008°53'0 0.0
2017-Sep-20 20:59N 37°57' W 008°53'0 0.0
2017-Sep-20 20:29N 37°57' W 008°53'0 0.0
2017-Sep-20 19:59N 37°57' W 008°53'0 0.0
2017-Sep-20 19:29N 37°57' W 008°53'0 0.3
2017-Sep-20 19:00N 37°57' W 008°53'1 2.7
2017-Sep-20 18:30N 37°56' W 008°52'0 0.0
2017-Sep-20 18:00N 37°56' W 008°52'0 0.0
2017-Sep-20 17:30N 37°56' W 008°52'0 0.0
2017-Sep-20 17:00N 37°56' W 008°52'0 0.0
2017-Sep-20 16:30N 37°56' W 008°52'0 0.0
2017-Sep-20 16:00N 37°56' W 008°52'0 0.0
2017-Sep-20 15:30N 37°56' W 008°52'0 0.0
2017-Sep-20 15:00N 37°56' W 008°52'0 0.0
2017-Sep-20 13:57N 37°56' W 008°52'0 0.0
2017-Sep-20 13:30N 37°56' W 008°52'0 0.0
2017-Sep-20 13:00N 37°56' W 008°52'0 0.0
2017-Sep-20 12:30N 37°56' W 008°52'0 0.0
2017-Sep-20 11:57N 37°56' W 008°52'0 0.0
2017-Sep-20 11:30N 37°56' W 008°52'0 0.0
2017-Sep-20 11:00N 37°56' W 008°52'0 0.0
2017-Sep-20 10:30N 37°56' W 008°52'0 0.0
2017-Sep-20 10:00N 37°56' W 008°52'0 0.0
2017-Sep-20 09:30N 37°56' W 008°52'0 0.0
2017-Sep-20 09:00N 37°56' W 008°52'0 0.0
2017-Sep-20 08:30N 37°56' W 008°52'0 0.0
2017-Sep-20 08:00N 37°56' W 008°52'0 0.0
2017-Sep-20 07:30N 37°56' W 008°52'0 0.0
2017-Sep-20 07:00N 37°56' W 008°52'0 0.0
2017-Sep-20 06:30N 37°56' W 008°52'0 0.0
2017-Sep-20 05:57N 37°56' W 008°52'0 0.0
2017-Sep-20 05:30N 37°56' W 008°52'0 0.0
2017-Sep-20 05:00N 37°56' W 008°52'0 0.0
2017-Sep-20 04:30N 37°56' W 008°52'0 0.0
2017-Sep-20 04:00N 37°56' W 008°52'0 0.0
2017-Sep-20 03:30N 37°56' W 008°52'0 0.0
2017-Sep-20 03:00N 37°56' W 008°52'0 0.0
2017-Sep-20 02:30N 37°56' W 008°52'0 0.0
2017-Sep-20 01:57N 37°56' W 008°52'0 0.0
2017-Sep-20 01:30N 37°56' W 008°52'0 0.1
2017-Sep-20 01:00N 37°56' W 008°52'1 1.3
2017-Sep-20 00:30N 37°56' W 008°52'1 2.8
2017-Sep-20 00:00N 37°56' W 008°51'0 0.3
2017-Sep-19 23:28N 37°56' W 008°51'0 0.0
2017-Sep-19 22:58N 37°56' W 008°51'0 0.0
2017-Sep-19 22:28N 37°56' W 008°51'0 0.0
2017-Sep-19 21:58N 37°56' W 008°51'0 0.0
2017-Sep-19 21:28N 37°56' W 008°51'0 0.0
2017-Sep-19 20:58N 37°56' W 008°51'0 0.0
2017-Sep-19 20:28N 37°56' W 008°51'0 0.0
2017-Sep-19 19:58N 37°56' W 008°51'0 0.0
2017-Sep-19 19:28N 37°56' W 008°51'0 0.0
2017-Sep-19 18:58N 37°56' W 008°51'0 0.0
2017-Sep-19 18:28N 37°56' W 008°51'0 0.0
2017-Sep-19 17:58N 37°56' W 008°51'0 0.0
2017-Sep-19 17:28N 37°56' W 008°51'0 0.1
2017-Sep-19 17:00N 37°56' W 008°51'1 2.4
2017-Sep-19 16:30N 37°55' W 008°51'3 6.7
2017-Sep-19 16:00N 37°54' W 008°55'1 1.4
2017-Sep-19 15:30N 37°54' W 008°56'0 0.0
2017-Sep-19 15:00N 37°54' W 008°56'2 4.4
2017-Sep-19 14:30N 37°54' W 008°53'3 4.8
2017-Sep-19 13:59N 37°56' W 008°51'0 0.5
2017-Sep-19 13:29N 37°56' W 008°51'0 0.0
2017-Sep-19 12:59N 37°56' W 008°51'0 0.0
2017-Sep-19 12:29N 37°56' W 008°51'0 0.0
2017-Sep-19 11:59N 37°56' W 008°51'0 0.0
2017-Sep-19 11:29N 37°56' W 008°51'0 0.0
2017-Sep-19 10:59N 37°56' W 008°51'0 0.0
2017-Sep-19 10:29N 37°56' W 008°51'0 0.0
2017-Sep-19 09:59N 37°56' W 008°51'0 0.0
2017-Sep-19 09:29N 37°56' W 008°51'1 1.4
2017-Sep-19 09:01N 37°55' W 008°51'1 1.4
2017-Sep-19 08:29N 37°55' W 008°51'0 0.0
2017-Sep-19 07:59N 37°55' W 008°51'0 0.0
2017-Sep-19 07:29N 37°55' W 008°51'0 0.0
2017-Sep-19 06:59N 37°55' W 008°51'0 0.0
2017-Sep-19 06:29N 37°55' W 008°51'0 0.0
2017-Sep-19 05:59N 37°55' W 008°51'0 0.0
2017-Sep-19 05:29N 37°55' W 008°51'0 0.0
2017-Sep-19 04:59N 37°55' W 008°51'0 0.1
2017-Sep-19 04:29N 37°55' W 008°51'0 0.0
2017-Sep-19 03:59N 37°55' W 008°51'0 0.0
2017-Sep-19 03:29N 37°55' W 008°51'0 0.0
2017-Sep-19 02:59N 37°55' W 008°51'0 0.0
2017-Sep-19 02:29N 37°55' W 008°51'0 0.0
2017-Sep-19 01:59N 37°55' W 008°51'0 0.0
2017-Sep-19 01:29N 37°55' W 008°51'0 0.0
2017-Sep-19 00:59N 37°55' W 008°51'0 0.0
2017-Sep-19 00:29N 37°55' W 008°51'0 0.0
2017-Sep-18 23:59N 37°55' W 008°51'0 0.0
2017-Sep-18 23:29N 37°55' W 008°51'0 0.0
2017-Sep-18 22:59N 37°55' W 008°51'0 0.0
2017-Sep-18 22:26N 37°55' W 008°51'0 0.0
2017-Sep-18 21:59N 37°55' W 008°51'0 0.0
2017-Sep-18 21:29N 37°55' W 008°51'0 0.0
2017-Sep-18 20:59N 37°55' W 008°51'0 0.0
2017-Sep-18 20:29N 37°55' W 008°51'0 0.0
2017-Sep-18 19:59N 37°55' W 008°51'0 0.0
2017-Sep-18 19:29N 37°55' W 008°51'0 0.0
2017-Sep-18 18:59N 37°55' W 008°51'0 0.0
2017-Sep-18 18:29N 37°55' W 008°51'0 0.1
2017-Sep-18 18:00N 37°55' W 008°51'1 2.1
2017-Sep-18 17:30N 37°56' W 008°52'1 2.8
2017-Sep-18 16:59N 37°57' W 008°53'0 0.0
2017-Sep-18 16:29N 37°57' W 008°53'0 0.0
2017-Sep-18 15:59N 37°57' W 008°53'0 0.0
2017-Sep-18 15:29N 37°57' W 008°53'0 0.0
2017-Sep-18 14:59N 37°57' W 008°53'0 0.0
2017-Sep-18 14:29N 37°57' W 008°53'0 0.0
2017-Sep-18 13:59N 37°57' W 008°53'0 0.0
2017-Sep-18 13:29N 37°57' W 008°53'0 0.0
2017-Sep-18 12:59N 37°57' W 008°53'0 0.0
2017-Sep-18 12:29N 37°57' W 008°53'0 0.0
2017-Sep-18 11:59N 37°57' W 008°53'0 0.0
2017-Sep-18 11:29N 37°57' W 008°53'0 0.0
2017-Sep-18 10:59N 37°57' W 008°53'0 0.0
2017-Sep-18 10:29N 37°57' W 008°53'0 0.0
2017-Sep-18 09:59N 37°57' W 008°53'0 0.0
2017-Sep-18 09:29N 37°57' W 008°53'0 0.0
2017-Sep-18 08:59N 37°57' W 008°53'0 0.0
2017-Sep-18 08:29N 37°57' W 008°53'0 0.0
2017-Sep-18 07:59N 37°57' W 008°53'0 0.4
2017-Sep-18 07:30N 37°57' W 008°53'2 4.4
2017-Sep-18 07:01N 37°55' W 008°52'0 0.2
2017-Sep-18 06:29N 37°55' W 008°51'0 0.0
2017-Sep-18 05:59N 37°55' W 008°51'0 0.0
2017-Sep-18 05:29N 37°55' W 008°51'0 0.0
2017-Sep-18 04:59N 37°55' W 008°51'0 0.1
2017-Sep-18 04:29N 37°55' W 008°51'0 0.1
2017-Sep-18 03:59N 37°55' W 008°51'0 0.1
2017-Sep-18 03:29N 37°55' W 008°51'0 0.1
2017-Sep-18 02:59N 37°55' W 008°51'0 0.0
2017-Sep-18 02:29N 37°55' W 008°51'0 0.0
2017-Sep-18 01:59N 37°55' W 008°51'0 0.0
2017-Sep-18 01:29N 37°55' W 008°51'0 0.0
2017-Sep-18 00:59N 37°55' W 008°51'0 0.0
2017-Sep-18 00:29N 37°55' W 008°51'0 0.0
2017-Sep-18 00:00N 37°55' W 008°52'1 1.9
2017-Sep-17 23:31N 37°55' W 008°50'1 1.5
2017-Sep-17 22:59N 37°56' W 008°51'0 0.0
2017-Sep-17 22:29N 37°56' W 008°51'0 0.0
2017-Sep-17 21:59N 37°56' W 008°51'0 0.0
2017-Sep-17 21:29N 37°56' W 008°51'0 0.0
2017-Sep-17 20:59N 37°56' W 008°51'0 0.0
2017-Sep-17 20:29N 37°56' W 008°51'0 0.0
2017-Sep-17 19:59N 37°56' W 008°51'0 0.0
2017-Sep-17 19:29N 37°56' W 008°51'0 0.0
2017-Sep-17 18:59N 37°56' W 008°51'0 0.0
2017-Sep-17 18:29N 37°56' W 008°51'0 0.0
2017-Sep-17 17:59N 37°56' W 008°51'0 0.0
2017-Sep-17 17:29N 37°56' W 008°51'0 0.0
2017-Sep-17 17:00N 37°56' W 008°51'0 0.0
2017-Sep-17 16:30N 37°56' W 008°51'0 0.9
2017-Sep-17 16:00N 37°55' W 008°50'1 2.0
2017-Sep-17 15:30N 37°55' W 008°52'0 0.1
2017-Sep-17 15:00N 37°55' W 008°51'0 0.0
2017-Sep-17 14:30N 37°55' W 008°51'0 0.0
2017-Sep-17 13:57N 37°55' W 008°51'0 0.0
2017-Sep-17 13:30N 37°55' W 008°51'0 0.0
2017-Sep-17 13:00N 37°55' W 008°51'0 0.0
2017-Sep-17 12:30N 37°55' W 008°51'0 0.0
2017-Sep-17 12:00N 37°55' W 008°51'0 0.0
2017-Sep-17 11:30N 37°55' W 008°51'0 0.0
2017-Sep-17 11:00N 37°55' W 008°51'0 0.0
2017-Sep-17 10:30N 37°55' W 008°51'0 0.0
2017-Sep-17 10:00N 37°55' W 008°52'0 0.0
2017-Sep-17 09:30N 37°55' W 008°52'0 0.0
2017-Sep-17 09:00N 37°55' W 008°52'0 0.0
2017-Sep-17 08:30N 37°55' W 008°51'0 0.4
2017-Sep-17 08:00N 37°55' W 008°51'1 1.9
2017-Sep-17 07:29N 37°56' W 008°51'0 0.0
2017-Sep-17 06:59N 37°56' W 008°51'0 0.0
2017-Sep-17 06:29N 37°56' W 008°51'0 0.0
2017-Sep-17 05:59N 37°56' W 008°51'0 0.0
2017-Sep-17 05:29N 37°56' W 008°51'0 0.0
2017-Sep-17 04:59N 37°56' W 008°51'0 0.0
2017-Sep-17 04:29N 37°56' W 008°51'0 0.0
2017-Sep-17 03:59N 37°56' W 008°51'0 0.0
2017-Sep-17 03:29N 37°56' W 008°51'0 0.0
2017-Sep-17 02:59N 37°56' W 008°51'0 0.0
2017-Sep-17 02:29N 37°56' W 008°51'0 0.0
2017-Sep-17 01:59N 37°56' W 008°51'0 0.0
2017-Sep-17 01:29N 37°56' W 008°51'0 0.0
2017-Sep-17 00:59N 37°56' W 008°51'0 0.0
2017-Sep-17 00:29N 37°56' W 008°51'0 0.0
2017-Sep-16 23:59N 37°56' W 008°51'0 0.0
2017-Sep-16 23:29N 37°56' W 008°51'0 0.0
2017-Sep-16 22:59N 37°56' W 008°51'0 0.0
2017-Sep-16 22:29N 37°56' W 008°51'0 0.4
2017-Sep-16 22:00N 37°56' W 008°51'0 0.0
2017-Sep-16 21:29N 37°56' W 008°51'0 0.0
2017-Sep-16 20:59N 37°56' W 008°51'0 0.0
2017-Sep-16 20:29N 37°56' W 008°51'0 0.0
2017-Sep-16 19:56N 37°56' W 008°51'0 0.0
2017-Sep-16 19:29N 37°56' W 008°51'0 0.0
2017-Sep-16 18:59N 37°56' W 008°51'0 0.0
2017-Sep-16 18:26N 37°56' W 008°51'0 0.0
2017-Sep-16 17:59N 37°56' W 008°51'0 0.0
2017-Sep-16 17:29N 37°56' W 008°51'0 0.0
2017-Sep-16 16:59N 37°56' W 008°51'0 0.0
2017-Sep-16 16:29N 37°56' W 008°51'0 0.0
2017-Sep-16 16:00N 37°56' W 008°51'0 0.0
2017-Sep-16 15:30N 37°56' W 008°51'0 1.0
2017-Sep-16 15:00N 37°55' W 008°50'2 4.9
2017-Sep-16 14:30N 37°57' W 008°53'0 0.9
2017-Sep-16 14:00N 37°57' W 008°53'0 0.0
2017-Sep-16 13:30N 37°57' W 008°53'0 0.0
2017-Sep-16 13:00N 37°57' W 008°53'0 0.0
2017-Sep-16 12:30N 37°57' W 008°53'0 0.0
2017-Sep-16 12:00N 37°57' W 008°53'0 0.0
2017-Sep-16 11:30N 37°57' W 008°53'0 0.0
2017-Sep-16 11:00N 37°57' W 008°53'0 0.0
2017-Sep-16 10:30N 37°57' W 008°53'0 0.0
2017-Sep-16 10:00N 37°57' W 008°53'0 0.0
2017-Sep-16 09:30N 37°57' W 008°53'0 0.0
2017-Sep-16 09:00N 37°57' W 008°53'  

Dump ship's entire track history